GLO1319 SBSG-SBGR
Flight info
| Callsign | GLO1319 |
|---|---|
| Flight time | 3h 10m |
| Altitude | 34000 |
| Route | DAKE2A SIKEL UZ21 VUNOX SANP1A |
| Aircraft | B738/M-SDFGIKLORWXY/LB1 |
Departure
| Time | 2026-05-07 11:17 |
|---|---|
| Airport | Rio Grande do Norte/São Gonçalo do Amarante–Governador Aluízio Alves International Airport (SBSG) |
Arrival
| Time | 2026-05-07 14:27 |
|---|---|
| Airport | São Paulo/Guarulhos–Governor André Franco Montoro International Airport (SBGR) |
| Time | Latitude | Longitude | Altitude | Speed | Heading |
|---|---|---|---|---|---|
| 2026-05-07 11:04 | -5.76433 | -35.37285 | 273 ft | 0 kts | 9° |
| 2026-05-07 11:10 | -5.76435 | -35.37285 | 273 ft | 2 kts | 9° |
| 2026-05-07 11:10 | -5.76461 | -35.37289 | 273 ft | 4 kts | 9° |
| 2026-05-07 11:10 | -5.76485 | -35.37293 | 273 ft | 3 kts | 8° |
| 2026-05-07 11:11 | -5.76508 | -35.37292 | 273 ft | 4 kts | 319° |
| 2026-05-07 11:11 | -5.76519 | -35.37271 | 273 ft | 3 kts | 279° |
| 2026-05-07 11:11 | -5.76521 | -35.37262 | 273 ft | 0 kts | 279° |
| 2026-05-07 11:13 | -5.76521 | -35.37266 | 273 ft | 3 kts | 271° |
| 2026-05-07 11:13 | -5.76548 | -35.37268 | 273 ft | 8 kts | 152° |
| 2026-05-07 11:13 | -5.76626 | -35.37245 | 273 ft | 15 kts | 188° |
| 2026-05-07 11:14 | -5.76696 | -35.37311 | 273 ft | 15 kts | 268° |
| 2026-05-07 11:14 | -5.76681 | -35.37412 | 272 ft | 14 kts | 279° |
| 2026-05-07 11:14 | -5.76664 | -35.37509 | 272 ft | 14 kts | 280° |
| 2026-05-07 11:14 | -5.76648 | -35.37602 | 272 ft | 13 kts | 280° |
| 2026-05-07 11:15 | -5.76634 | -35.37694 | 273 ft | 14 kts | 276° |
| 2026-05-07 11:15 | -5.76618 | -35.37796 | 273 ft | 16 kts | 279° |
| 2026-05-07 11:15 | -5.76601 | -35.37902 | 273 ft | 15 kts | 278° |
| 2026-05-07 11:15 | -5.76646 | -35.37964 | 273 ft | 12 kts | 205° |
| 2026-05-07 11:16 | -5.76725 | -35.37979 | 272 ft | 11 kts | 185° |
| 2026-05-07 11:16 | -5.76771 | -35.37927 | 275 ft | 11 kts | 102° |
| 2026-05-07 11:16 | -5.76809 | -35.37701 | 272 ft | 67 kts | 99° |
| 2026-05-07 11:16 | -5.76921 | -35.37008 | 274 ft | 132 kts | 99° |
| 2026-05-07 11:17 | -5.77117 | -35.35901 | 318 ft | 181 kts | 102° |
| 2026-05-07 11:17 | -5.77361 | -35.34648 | 1051 ft | 184 kts | 103° |
| 2026-05-07 11:17 | -5.77592 | -35.33359 | 1734 ft | 198 kts | 100° |
| 2026-05-07 11:17 | -5.77807 | -35.31915 | 1998 ft | 224 kts | 101° |
| 2026-05-07 11:18 | -5.78055 | -35.30302 | 2488 ft | 234 kts | 107° |
| 2026-05-07 11:18 | -5.78916 | -35.28922 | 2848 ft | 247 kts | 144° |
| 2026-05-07 11:18 | -5.80514 | -35.28245 | 3557 ft | 253 kts | 162° |
| 2026-05-07 11:18 | -5.82200 | -35.27737 | 4449 ft | 254 kts | 162° |
| 2026-05-07 11:19 | -5.83904 | -35.27198 | 5235 ft | 259 kts | 160° |
| 2026-05-07 11:19 | -5.85630 | -35.26630 | 6006 ft | 263 kts | 160° |
| 2026-05-07 11:19 | -5.87382 | -35.26040 | 6794 ft | 267 kts | 159° |
| 2026-05-07 11:19 | -5.89157 | -35.25437 | 7503 ft | 272 kts | 159° |
| 2026-05-07 11:20 | -5.91039 | -35.25080 | 8189 ft | 281 kts | 179° |
| 2026-05-07 11:20 | -5.92984 | -35.25442 | 8926 ft | 288 kts | 193° |
| 2026-05-07 11:20 | -5.94917 | -35.26030 | 9613 ft | 293 kts | 195° |
| 2026-05-07 11:20 | -5.96875 | -35.26651 | 10261 ft | 299 kts | 195° |
| 2026-05-07 11:21 | -5.98932 | -35.27298 | 10459 ft | 322 kts | 195° |
| 2026-05-07 11:21 | -6.01126 | -35.27978 | 10851 ft | 335 kts | 195° |
| 2026-05-07 11:21 | -6.03370 | -35.28664 | 11496 ft | 339 kts | 195° |
| 2026-05-07 11:21 | -6.05641 | -35.29355 | 12192 ft | 341 kts | 195° |
| 2026-05-07 11:22 | -6.07927 | -35.30052 | 12845 ft | 345 kts | 196° |
| 2026-05-07 11:22 | -6.10220 | -35.30810 | 13477 ft | 349 kts | 198° |
| 2026-05-07 11:22 | -6.12530 | -35.31604 | 14086 ft | 353 kts | 198° |
| 2026-05-07 11:22 | -6.14866 | -35.32413 | 14707 ft | 356 kts | 198° |
| 2026-05-07 11:23 | -6.17192 | -35.33216 | 15293 ft | 360 kts | 198° |
| 2026-05-07 11:23 | -6.19603 | -35.34044 | 15883 ft | 364 kts | 198° |
| 2026-05-07 11:23 | -6.21981 | -35.34857 | 16444 ft | 367 kts | 199° |
| 2026-05-07 11:23 | -6.24439 | -35.35696 | 17019 ft | 370 kts | 199° |
| 2026-05-07 11:24 | -6.26888 | -35.36531 | 17543 ft | 374 kts | 199° |
| 2026-05-07 11:24 | -6.29384 | -35.37175 | 18022 ft | 378 kts | 185° |
| 2026-05-07 11:24 | -6.32054 | -35.37302 | 18588 ft | 380 kts | 182° |
| 2026-05-07 11:24 | -6.34671 | -35.37363 | 19059 ft | 384 kts | 181° |
| 2026-05-07 11:25 | -6.37364 | -35.37418 | 19522 ft | 389 kts | 181° |
| 2026-05-07 11:25 | -6.40081 | -35.37480 | 19954 ft | 393 kts | 182° |
| 2026-05-07 11:25 | -6.42829 | -35.37553 | 20401 ft | 396 kts | 182° |
| 2026-05-07 11:25 | -6.45599 | -35.37635 | 20839 ft | 400 kts | 182° |
| 2026-05-07 11:26 | -6.48397 | -35.37724 | 21263 ft | 404 kts | 183° |
| 2026-05-07 11:26 | -6.51225 | -35.37817 | 21673 ft | 408 kts | 183° |
| 2026-05-07 11:26 | -6.54077 | -35.37912 | 22076 ft | 411 kts | 183° |
| 2026-05-07 11:26 | -6.56945 | -35.38009 | 22473 ft | 414 kts | 183° |
| 2026-05-07 11:27 | -6.59838 | -35.38107 | 22876 ft | 417 kts | 183° |
| 2026-05-07 11:27 | -6.62753 | -35.38205 | 23241 ft | 421 kts | 184° |
| 2026-05-07 11:27 | -6.65696 | -35.38305 | 23587 ft | 425 kts | 184° |
| 2026-05-07 11:27 | -6.68663 | -35.38404 | 23945 ft | 427 kts | 184° |
| 2026-05-07 11:28 | -6.71646 | -35.38505 | 24291 ft | 431 kts | 184° |
| 2026-05-07 11:28 | -6.74658 | -35.38606 | 24631 ft | 434 kts | 184° |
| 2026-05-07 11:28 | -6.77642 | -35.38706 | 25043 ft | 434 kts | 184° |
| 2026-05-07 11:28 | -6.80703 | -35.38809 | 25451 ft | 435 kts | 184° |
| 2026-05-07 11:29 | -6.83737 | -35.38911 | 25827 ft | 436 kts | 184° |
| 2026-05-07 11:29 | -6.86776 | -35.39013 | 26186 ft | 438 kts | 184° |
| 2026-05-07 11:29 | -6.89785 | -35.39115 | 26522 ft | 439 kts | 184° |
| 2026-05-07 11:29 | -6.92845 | -35.39218 | 26863 ft | 441 kts | 184° |
| 2026-05-07 11:30 | -6.95918 | -35.39336 | 27174 ft | 442 kts | 186° |
| 2026-05-07 11:30 | -6.98985 | -35.39606 | 27464 ft | 443 kts | 189° |
| 2026-05-07 11:30 | -7.02047 | -35.39981 | 27800 ft | 443 kts | 190° |
| 2026-05-07 11:30 | -7.05106 | -35.40391 | 28127 ft | 444 kts | 190° |
| 2026-05-07 11:31 | -7.08175 | -35.40803 | 28430 ft | 445 kts | 190° |
| 2026-05-07 11:31 | -7.11254 | -35.41205 | 28722 ft | 447 kts | 190° |
| 2026-05-07 11:31 | -7.14340 | -35.41596 | 29007 ft | 448 kts | 190° |
| 2026-05-07 11:31 | -7.17441 | -35.41978 | 29285 ft | 449 kts | 190° |
| 2026-05-07 11:32 | -7.23662 | -35.42732 | 29808 ft | 452 kts | 190° |
| 2026-05-07 11:32 | -7.26789 | -35.43109 | 30061 ft | 453 kts | 190° |
| 2026-05-07 11:32 | -7.29920 | -35.43486 | 30319 ft | 454 kts | 190° |
| 2026-05-07 11:33 | -7.33062 | -35.43866 | 30539 ft | 455 kts | 190° |
| 2026-05-07 11:33 | -7.36217 | -35.44247 | 30725 ft | 458 kts | 190° |
| 2026-05-07 11:33 | -7.39395 | -35.44633 | 30918 ft | 460 kts | 190° |
| 2026-05-07 11:33 | -7.42584 | -35.45019 | 31129 ft | 461 kts | 191° |
| 2026-05-07 11:34 | -7.45735 | -35.45400 | 31328 ft | 463 kts | 191° |
| 2026-05-07 11:34 | -7.48938 | -35.45787 | 31517 ft | 464 kts | 191° |
| 2026-05-07 11:34 | -7.52147 | -35.46176 | 31694 ft | 466 kts | 191° |
| 2026-05-07 11:34 | -7.55373 | -35.46567 | 31872 ft | 468 kts | 191° |
| 2026-05-07 11:35 | -7.58617 | -35.46960 | 32050 ft | 470 kts | 191° |
| 2026-05-07 11:35 | -7.61866 | -35.47364 | 32233 ft | 470 kts | 193° |
| 2026-05-07 11:35 | -7.65051 | -35.48064 | 32387 ft | 467 kts | 201° |
| 2026-05-07 11:35 | -7.68077 | -35.49226 | 32559 ft | 465 kts | 207° |
| 2026-05-07 11:36 | -7.71053 | -35.50515 | 32811 ft | 464 kts | 207° |
| 2026-05-07 11:36 | -7.74002 | -35.51819 | 33082 ft | 462 kts | 208° |
| 2026-05-07 11:36 | -7.76953 | -35.53122 | 33310 ft | 462 kts | 208° |
| 2026-05-07 11:36 | -7.79910 | -35.54418 | 33491 ft | 463 kts | 207° |
| 2026-05-07 11:37 | -7.82873 | -35.55704 | 33699 ft | 464 kts | 207° |
| 2026-05-07 11:37 | -7.85842 | -35.56982 | 33953 ft | 463 kts | 207° |
| 2026-05-07 11:37 | -7.88803 | -35.58251 | 34010 ft | 462 kts | 207° |
| 2026-05-07 11:38 | -7.94619 | -35.60735 | 34022 ft | 453 kts | 207° |
| 2026-05-07 11:38 | -8.00396 | -35.63206 | 34027 ft | 450 kts | 207° |
| 2026-05-07 11:39 | -8.06152 | -35.65672 | 34021 ft | 448 kts | 208° |
| 2026-05-07 11:39 | -8.11902 | -35.68137 | 34032 ft | 448 kts | 208° |
| 2026-05-07 11:40 | -8.17635 | -35.70595 | 34034 ft | 448 kts | 208° |
| 2026-05-07 11:40 | -8.23377 | -35.73057 | 34026 ft | 448 kts | 208° |
| 2026-05-07 11:41 | -8.29126 | -35.75522 | 34029 ft | 450 kts | 208° |
| 2026-05-07 11:41 | -8.34890 | -35.77995 | 34027 ft | 451 kts | 208° |
| 2026-05-07 11:42 | -8.40640 | -35.80463 | 34023 ft | 452 kts | 208° |
| 2026-05-07 11:42 | -8.46444 | -35.82954 | 34033 ft | 453 kts | 208° |
| 2026-05-07 11:43 | -8.52256 | -35.85450 | 34026 ft | 455 kts | 208° |
| 2026-05-07 11:43 | -8.58081 | -35.87952 | 34034 ft | 455 kts | 208° |
| 2026-05-07 11:44 | -8.63911 | -35.90457 | 34010 ft | 455 kts | 208° |
| 2026-05-07 11:44 | -8.69733 | -35.92959 | 34025 ft | 454 kts | 208° |
| 2026-05-07 11:45 | -8.74573 | -35.95040 | 34017 ft | 454 kts | 208° |
| 2026-05-07 11:45 | -8.80381 | -35.97539 | 34019 ft | 453 kts | 208° |
| 2026-05-07 11:46 | -8.86977 | -36.00688 | 34007 ft | 444 kts | 219° |
| 2026-05-07 11:46 | -8.91194 | -36.03678 | 34017 ft | 441 kts | 221° |
| 2026-05-07 11:47 | -8.96182 | -36.07286 | 34014 ft | 439 kts | 221° |
| 2026-05-07 11:47 | -9.01146 | -36.10805 | 34013 ft | 438 kts | 220° |
| 2026-05-07 11:48 | -9.06140 | -36.14325 | 34015 ft | 436 kts | 220° |
| 2026-05-07 11:48 | -9.11110 | -36.17834 | 34016 ft | 434 kts | 221° |
| 2026-05-07 11:49 | -9.16061 | -36.21334 | 34016 ft | 434 kts | 221° |
| 2026-05-07 11:49 | -9.21007 | -36.24831 | 34028 ft | 433 kts | 221° |
| 2026-05-07 11:50 | -9.25916 | -36.28305 | 34017 ft | 434 kts | 221° |
| 2026-05-07 11:50 | -9.30896 | -36.31829 | 34029 ft | 434 kts | 221° |
| 2026-05-07 11:51 | -9.35820 | -36.35315 | 34014 ft | 435 kts | 221° |
| 2026-05-07 11:51 | -9.40775 | -36.38824 | 34027 ft | 435 kts | 221° |
| 2026-05-07 11:52 | -9.45747 | -36.42346 | 34019 ft | 436 kts | 221° |
| 2026-05-07 11:52 | -9.50718 | -36.45869 | 34017 ft | 436 kts | 221° |
| 2026-05-07 11:53 | -9.55695 | -36.49398 | 34028 ft | 437 kts | 221° |
| 2026-05-07 11:53 | -9.60679 | -36.52932 | 34025 ft | 437 kts | 221° |
| 2026-05-07 11:54 | -9.65654 | -36.56462 | 34021 ft | 436 kts | 221° |
| 2026-05-07 11:54 | -9.70624 | -36.59994 | 34018 ft | 436 kts | 221° |
| 2026-05-07 11:55 | -9.75576 | -36.63534 | 34032 ft | 435 kts | 221° |
| 2026-05-07 11:55 | -9.80491 | -36.67050 | 34024 ft | 434 kts | 221° |
| 2026-05-07 11:56 | -9.85424 | -36.70579 | 34022 ft | 433 kts | 221° |
| 2026-05-07 11:56 | -9.90346 | -36.74100 | 34021 ft | 432 kts | 221° |
| 2026-05-07 11:57 | -9.95262 | -36.77615 | 34024 ft | 431 kts | 221° |
| 2026-05-07 11:57 | -10.00167 | -36.81120 | 34026 ft | 431 kts | 221° |
| 2026-05-07 11:58 | -10.05071 | -36.84626 | 34029 ft | 430 kts | 221° |
| 2026-05-07 11:58 | -10.09967 | -36.88129 | 34027 ft | 430 kts | 221° |
| 2026-05-07 11:59 | -10.14820 | -36.91603 | 34034 ft | 429 kts | 221° |
| 2026-05-07 11:59 | -10.19692 | -36.95092 | 34036 ft | 429 kts | 221° |
| 2026-05-07 12:00 | -10.24570 | -36.98587 | 34028 ft | 429 kts | 221° |
| 2026-05-07 12:00 | -10.29447 | -37.02083 | 34024 ft | 429 kts | 221° |
| 2026-05-07 12:01 | -10.34296 | -37.05559 | 34034 ft | 428 kts | 221° |
| 2026-05-07 12:01 | -10.39172 | -37.09057 | 34022 ft | 429 kts | 221° |
| 2026-05-07 12:02 | -10.44049 | -37.12556 | 34033 ft | 429 kts | 221° |
| 2026-05-07 12:02 | -10.48918 | -37.16051 | 34025 ft | 428 kts | 220° |
| 2026-05-07 12:03 | -10.53786 | -37.19546 | 34021 ft | 428 kts | 220° |
| 2026-05-07 12:03 | -10.58654 | -37.23044 | 34035 ft | 428 kts | 220° |
| 2026-05-07 12:04 | -10.63486 | -37.26516 | 34021 ft | 428 kts | 221° |
| 2026-05-07 12:04 | -10.68352 | -37.30014 | 34025 ft | 428 kts | 221° |
| 2026-05-07 12:05 | -10.73222 | -37.33517 | 34029 ft | 428 kts | 221° |
| 2026-05-07 12:05 | -10.78080 | -37.37012 | 34038 ft | 428 kts | 221° |
| 2026-05-07 12:06 | -10.82948 | -37.40517 | 34032 ft | 429 kts | 221° |
| 2026-05-07 12:06 | -10.87827 | -37.44030 | 34030 ft | 429 kts | 220° |
| 2026-05-07 12:07 | -10.92703 | -37.47543 | 34027 ft | 430 kts | 220° |
| 2026-05-07 12:07 | -10.97590 | -37.51065 | 34034 ft | 430 kts | 220° |
| 2026-05-07 12:08 | -11.02447 | -37.54567 | 34027 ft | 431 kts | 220° |
| 2026-05-07 12:08 | -11.07339 | -37.58095 | 34031 ft | 431 kts | 220° |
| 2026-05-07 12:09 | -11.12233 | -37.61626 | 34023 ft | 432 kts | 220° |
| 2026-05-07 12:09 | -11.17133 | -37.65164 | 34029 ft | 432 kts | 220° |
| 2026-05-07 12:10 | -11.22041 | -37.68709 | 34027 ft | 431 kts | 220° |
| 2026-05-07 12:10 | -11.26944 | -37.72251 | 34024 ft | 431 kts | 220° |
| 2026-05-07 12:11 | -11.31841 | -37.75791 | 34035 ft | 432 kts | 220° |
| 2026-05-07 12:11 | -11.36712 | -37.79315 | 34040 ft | 433 kts | 220° |
| 2026-05-07 12:12 | -11.41630 | -37.82873 | 34022 ft | 433 kts | 220° |
| 2026-05-07 12:12 | -11.46541 | -37.86427 | 34029 ft | 432 kts | 220° |
| 2026-05-07 12:13 | -11.51442 | -37.89986 | 34027 ft | 432 kts | 220° |
| 2026-05-07 12:13 | -11.56328 | -37.93543 | 34030 ft | 431 kts | 220° |
| 2026-05-07 12:14 | -11.61210 | -37.97100 | 34037 ft | 432 kts | 220° |
| 2026-05-07 12:14 | -11.66098 | -38.00662 | 34037 ft | 431 kts | 219° |
| 2026-05-07 12:15 | -11.70976 | -38.04216 | 34036 ft | 431 kts | 219° |
| 2026-05-07 12:15 | -11.75849 | -38.07769 | 34039 ft | 430 kts | 219° |
| 2026-05-07 12:16 | -11.80718 | -38.11321 | 34040 ft | 430 kts | 219° |
| 2026-05-07 12:16 | -11.85558 | -38.14854 | 34032 ft | 430 kts | 219° |
| 2026-05-07 12:17 | -11.90432 | -38.18413 | 34049 ft | 430 kts | 219° |
| 2026-05-07 12:17 | -11.95302 | -38.21970 | 34031 ft | 431 kts | 219° |
| 2026-05-07 12:18 | -12.00174 | -38.25530 | 34048 ft | 430 kts | 219° |
| 2026-05-07 12:18 | -12.05052 | -38.29097 | 34046 ft | 431 kts | 219° |
| 2026-05-07 12:19 | -12.09926 | -38.32661 | 34048 ft | 431 kts | 219° |
| 2026-05-07 12:19 | -12.14774 | -38.36210 | 34045 ft | 431 kts | 219° |
| 2026-05-07 12:20 | -12.19658 | -38.39785 | 34050 ft | 431 kts | 219° |
| 2026-05-07 12:20 | -12.24538 | -38.43360 | 34046 ft | 432 kts | 219° |
| 2026-05-07 12:21 | -12.29419 | -38.46936 | 34052 ft | 431 kts | 219° |
| 2026-05-07 12:21 | -12.34299 | -38.50515 | 34042 ft | 431 kts | 219° |
| 2026-05-07 12:22 | -12.39149 | -38.54072 | 34052 ft | 431 kts | 219° |
| 2026-05-07 12:22 | -12.44021 | -38.57647 | 34044 ft | 431 kts | 219° |
| 2026-05-07 12:23 | -12.48895 | -38.61225 | 34043 ft | 431 kts | 219° |
| 2026-05-07 12:23 | -12.53754 | -38.64795 | 34048 ft | 430 kts | 219° |
| 2026-05-07 12:24 | -12.58626 | -38.68376 | 34047 ft | 430 kts | 219° |
| 2026-05-07 12:24 | -12.63483 | -38.71947 | 34038 ft | 430 kts | 219° |
| 2026-05-07 12:25 | -12.68341 | -38.75522 | 34044 ft | 430 kts | 218° |
| 2026-05-07 12:25 | -12.73193 | -38.79092 | 34054 ft | 429 kts | 218° |
| 2026-05-07 12:26 | -12.78041 | -38.82663 | 34053 ft | 429 kts | 218° |
| 2026-05-07 12:26 | -12.82861 | -38.86215 | 34057 ft | 429 kts | 218° |
| 2026-05-07 12:27 | -12.87713 | -38.89794 | 34053 ft | 429 kts | 218° |
| 2026-05-07 12:27 | -12.92553 | -38.93380 | 34058 ft | 429 kts | 218° |
| 2026-05-07 12:28 | -12.97393 | -38.96973 | 34054 ft | 429 kts | 218° |
| 2026-05-07 12:28 | -13.02233 | -39.00567 | 34057 ft | 429 kts | 218° |
| 2026-05-07 12:29 | -13.07073 | -39.04162 | 34056 ft | 429 kts | 218° |
| 2026-05-07 12:29 | -13.11910 | -39.07757 | 34061 ft | 429 kts | 218° |
| 2026-05-07 12:30 | -13.15937 | -39.10751 | 34067 ft | 429 kts | 218° |
| 2026-05-07 12:30 | -13.20784 | -39.14356 | 34065 ft | 430 kts | 218° |
| 2026-05-07 12:31 | -13.26418 | -39.18550 | 34065 ft | 430 kts | 218° |
| 2026-05-07 12:31 | -13.30447 | -39.21550 | 34067 ft | 430 kts | 218° |
| 2026-05-07 12:32 | -13.36079 | -39.25746 | 34064 ft | 430 kts | 218° |
| 2026-05-07 12:32 | -13.40141 | -39.28774 | 34075 ft | 430 kts | 218° |
| 2026-05-07 12:33 | -13.47407 | -39.34195 | 34075 ft | 430 kts | 217° |
| 2026-05-07 12:33 | -13.52251 | -39.37818 | 34074 ft | 430 kts | 217° |
| 2026-05-07 12:34 | -13.57061 | -39.41420 | 34073 ft | 430 kts | 217° |
| 2026-05-07 12:34 | -13.61901 | -39.45047 | 34079 ft | 430 kts | 217° |
| 2026-05-07 12:35 | -13.66746 | -39.48678 | 34079 ft | 430 kts | 217° |
| 2026-05-07 12:35 | -13.71581 | -39.52304 | 34086 ft | 430 kts | 217° |
| 2026-05-07 12:36 | -13.76424 | -39.55937 | 34079 ft | 430 kts | 217° |
| 2026-05-07 12:36 | -13.81258 | -39.59566 | 34087 ft | 430 kts | 217° |
| 2026-05-07 12:37 | -13.86097 | -39.63201 | 34084 ft | 430 kts | 217° |
| 2026-05-07 12:37 | -13.90929 | -39.66832 | 34088 ft | 430 kts | 216° |
| 2026-05-07 12:38 | -13.95765 | -39.70468 | 34096 ft | 430 kts | 216° |
| 2026-05-07 12:38 | -14.00597 | -39.74103 | 34090 ft | 430 kts | 216° |
| 2026-05-07 12:39 | -14.05399 | -39.77718 | 34090 ft | 430 kts | 216° |
| 2026-05-07 12:39 | -14.10237 | -39.81361 | 34092 ft | 430 kts | 216° |
| 2026-05-07 12:40 | -14.15076 | -39.85008 | 34088 ft | 430 kts | 216° |
| 2026-05-07 12:40 | -14.19911 | -39.88653 | 34090 ft | 430 kts | 216° |
| 2026-05-07 12:41 | -14.24738 | -39.92294 | 34096 ft | 430 kts | 216° |
| 2026-05-07 12:41 | -14.29566 | -39.95938 | 34088 ft | 430 kts | 216° |
| 2026-05-07 12:42 | -14.34396 | -39.99585 | 34092 ft | 430 kts | 216° |
| 2026-05-07 12:42 | -14.39225 | -40.03234 | 34098 ft | 430 kts | 216° |
| 2026-05-07 12:43 | -14.44015 | -40.06856 | 34095 ft | 429 kts | 216° |
| 2026-05-07 12:43 | -14.48829 | -40.10497 | 34102 ft | 429 kts | 216° |
| 2026-05-07 12:44 | -14.53641 | -40.14139 | 34103 ft | 428 kts | 216° |
| 2026-05-07 12:44 | -14.58445 | -40.17777 | 34101 ft | 428 kts | 216° |
| 2026-05-07 12:45 | -14.63253 | -40.21419 | 34103 ft | 428 kts | 216° |
| 2026-05-07 12:45 | -14.68052 | -40.25056 | 34101 ft | 427 kts | 216° |
| 2026-05-07 12:46 | -14.72844 | -40.28691 | 34102 ft | 427 kts | 216° |
| 2026-05-07 12:46 | -14.77618 | -40.32315 | 34101 ft | 426 kts | 216° |
| 2026-05-07 12:47 | -14.82401 | -40.35947 | 34101 ft | 426 kts | 216° |
| 2026-05-07 12:47 | -14.87141 | -40.39550 | 34114 ft | 425 kts | 216° |
| 2026-05-07 12:48 | -14.91906 | -40.43173 | 34117 ft | 425 kts | 216° |
| 2026-05-07 12:48 | -14.96669 | -40.46797 | 34120 ft | 424 kts | 215° |
| 2026-05-07 12:49 | -15.01422 | -40.50415 | 34124 ft | 424 kts | 215° |
| 2026-05-07 12:49 | -15.06179 | -40.54038 | 34118 ft | 424 kts | 215° |
| 2026-05-07 12:50 | -15.10927 | -40.57657 | 34121 ft | 424 kts | 215° |
| 2026-05-07 12:50 | -15.15675 | -40.61277 | 34116 ft | 424 kts | 215° |
| 2026-05-07 12:51 | -15.20421 | -40.64898 | 34121 ft | 423 kts | 215° |
| 2026-05-07 12:51 | -15.25130 | -40.68493 | 34123 ft | 423 kts | 215° |
| 2026-05-07 12:52 | -15.29871 | -40.72114 | 34122 ft | 423 kts | 215° |
| 2026-05-07 12:52 | -15.34619 | -40.75743 | 34115 ft | 424 kts | 215° |
| 2026-05-07 12:53 | -15.39358 | -40.79367 | 34121 ft | 423 kts | 215° |
| 2026-05-07 12:53 | -15.44095 | -40.82992 | 34120 ft | 423 kts | 215° |
| 2026-05-07 12:54 | -15.48833 | -40.86619 | 34132 ft | 423 kts | 215° |
| 2026-05-07 12:54 | -15.53563 | -40.90243 | 34126 ft | 422 kts | 215° |
| 2026-05-07 12:55 | -15.58290 | -40.93866 | 34131 ft | 422 kts | 215° |
| 2026-05-07 12:55 | -15.62981 | -40.97464 | 34125 ft | 422 kts | 215° |
| 2026-05-07 12:56 | -15.67694 | -41.01080 | 34130 ft | 421 kts | 214° |
| 2026-05-07 12:56 | -15.72399 | -41.04693 | 34128 ft | 420 kts | 214° |
| 2026-05-07 12:57 | -15.77096 | -41.08302 | 34130 ft | 420 kts | 214° |
| 2026-05-07 12:57 | -15.81793 | -41.11914 | 34133 ft | 419 kts | 214° |
| 2026-05-07 12:58 | -15.86485 | -41.15523 | 34128 ft | 419 kts | 214° |
| 2026-05-07 12:58 | -15.91166 | -41.19127 | 34126 ft | 418 kts | 214° |
| 2026-05-07 12:59 | -15.95814 | -41.22707 | 34130 ft | 418 kts | 214° |
| 2026-05-07 12:59 | -16.00473 | -41.26298 | 34140 ft | 417 kts | 214° |
| 2026-05-07 13:00 | -16.05128 | -41.29888 | 34141 ft | 416 kts | 214° |
| 2026-05-07 13:00 | -16.09776 | -41.33477 | 34137 ft | 416 kts | 214° |
| 2026-05-07 13:01 | -16.14428 | -41.37071 | 34140 ft | 416 kts | 214° |
| 2026-05-07 13:01 | -16.19069 | -41.40659 | 34147 ft | 415 kts | 214° |
| 2026-05-07 13:02 | -16.23710 | -41.44249 | 34142 ft | 415 kts | 214° |
| 2026-05-07 13:02 | -16.28338 | -41.47831 | 34151 ft | 414 kts | 214° |
| 2026-05-07 13:03 | -16.32932 | -41.51389 | 34150 ft | 414 kts | 214° |
| 2026-05-07 13:03 | -16.37555 | -41.54972 | 34150 ft | 414 kts | 214° |
| 2026-05-07 13:04 | -16.42175 | -41.58554 | 34142 ft | 414 kts | 214° |
| 2026-05-07 13:04 | -16.46798 | -41.62141 | 34151 ft | 414 kts | 214° |
| 2026-05-07 13:05 | -16.51419 | -41.65729 | 34162 ft | 414 kts | 214° |
| 2026-05-07 13:05 | -16.56011 | -41.69296 | 34165 ft | 414 kts | 214° |
| 2026-05-07 13:06 | -16.60626 | -41.72883 | 34165 ft | 414 kts | 214° |
| 2026-05-07 13:06 | -16.65237 | -41.76470 | 34166 ft | 413 kts | 214° |
| 2026-05-07 13:07 | -16.69853 | -41.80063 | 34165 ft | 413 kts | 214° |
| 2026-05-07 13:07 | -16.74461 | -41.83652 | 34163 ft | 413 kts | 214° |
| 2026-05-07 13:08 | -16.79069 | -41.87243 | 34168 ft | 413 kts | 214° |
| 2026-05-07 13:08 | -16.83647 | -41.90814 | 34165 ft | 413 kts | 214° |
| 2026-05-07 13:09 | -16.88253 | -41.94407 | 34165 ft | 413 kts | 214° |
| 2026-05-07 13:09 | -16.92861 | -41.98001 | 34183 ft | 413 kts | 213° |
| 2026-05-07 13:10 | -16.97476 | -42.01603 | 34174 ft | 414 kts | 213° |
| 2026-05-07 13:10 | -17.02087 | -42.05205 | 34172 ft | 413 kts | 213° |
| 2026-05-07 13:11 | -17.06687 | -42.08802 | 34176 ft | 411 kts | 213° |
| 2026-05-07 13:11 | -17.11233 | -42.12359 | 34173 ft | 410 kts | 213° |
| 2026-05-07 13:12 | -17.15812 | -42.15943 | 34179 ft | 408 kts | 213° |
| 2026-05-07 13:12 | -17.20354 | -42.19501 | 34177 ft | 407 kts | 213° |
| 2026-05-07 13:13 | -17.24856 | -42.23029 | 34174 ft | 407 kts | 213° |
| 2026-05-07 13:13 | -17.29411 | -42.26601 | 34175 ft | 406 kts | 213° |
| 2026-05-07 13:14 | -17.33900 | -42.30124 | 34180 ft | 406 kts | 213° |
| 2026-05-07 13:14 | -17.38427 | -42.33680 | 34167 ft | 406 kts | 213° |
| 2026-05-07 13:15 | -17.42948 | -42.37232 | 34178 ft | 406 kts | 213° |
| 2026-05-07 13:15 | -17.46714 | -42.40192 | 34174 ft | 407 kts | 213° |
| 2026-05-07 13:16 | -17.51240 | -42.43753 | 34181 ft | 407 kts | 213° |
| 2026-05-07 13:16 | -17.55781 | -42.47327 | 34176 ft | 408 kts | 213° |
| 2026-05-07 13:17 | -17.60328 | -42.50909 | 34175 ft | 409 kts | 213° |
| 2026-05-07 13:17 | -17.64871 | -42.54490 | 34194 ft | 409 kts | 213° |
| 2026-05-07 13:18 | -17.69419 | -42.58078 | 34188 ft | 409 kts | 213° |
| 2026-05-07 13:18 | -17.73976 | -42.61674 | 34194 ft | 409 kts | 213° |
| 2026-05-07 13:19 | -17.78525 | -42.65267 | 34199 ft | 409 kts | 213° |
| 2026-05-07 13:19 | -17.83073 | -42.68861 | 34197 ft | 409 kts | 213° |
| 2026-05-07 13:20 | -17.87615 | -42.72453 | 34192 ft | 409 kts | 213° |
| 2026-05-07 13:20 | -17.92122 | -42.76020 | 34196 ft | 408 kts | 213° |
| 2026-05-07 13:21 | -17.96652 | -42.79607 | 34191 ft | 407 kts | 213° |
| 2026-05-07 13:21 | -18.01170 | -42.83187 | 34193 ft | 406 kts | 213° |
| 2026-05-07 13:22 | -18.05678 | -42.86762 | 34196 ft | 405 kts | 213° |
| 2026-05-07 13:22 | -18.10174 | -42.90329 | 34200 ft | 405 kts | 213° |
| 2026-05-07 13:23 | -18.14661 | -42.93890 | 34198 ft | 404 kts | 213° |
| 2026-05-07 13:23 | -18.19153 | -42.97459 | 34193 ft | 404 kts | 213° |
| 2026-05-07 13:24 | -18.23642 | -43.01028 | 34193 ft | 404 kts | 213° |
| 2026-05-07 13:24 | -18.28098 | -43.04574 | 34199 ft | 404 kts | 213° |
| 2026-05-07 13:25 | -18.32583 | -43.08144 | 34213 ft | 404 kts | 213° |
| 2026-05-07 13:25 | -18.37066 | -43.11715 | 34201 ft | 404 kts | 213° |
| 2026-05-07 13:26 | -18.41540 | -43.15301 | 34201 ft | 404 kts | 213° |
| 2026-05-07 13:26 | -18.46000 | -43.18919 | 34208 ft | 404 kts | 213° |
| 2026-05-07 13:27 | -18.50464 | -43.22542 | 34200 ft | 405 kts | 213° |
| 2026-05-07 13:27 | -18.54927 | -43.26163 | 34202 ft | 405 kts | 213° |
| 2026-05-07 13:28 | -18.59357 | -43.29759 | 34207 ft | 405 kts | 213° |
| 2026-05-07 13:28 | -18.63821 | -43.33380 | 34210 ft | 405 kts | 213° |
| 2026-05-07 13:29 | -18.68318 | -43.36961 | 34209 ft | 404 kts | 212° |
| 2026-05-07 13:29 | -18.72814 | -43.40524 | 34200 ft | 403 kts | 212° |
| 2026-05-07 13:30 | -18.77296 | -43.44087 | 34205 ft | 403 kts | 213° |
| 2026-05-07 13:30 | -18.81765 | -43.47647 | 34215 ft | 402 kts | 213° |
| 2026-05-07 13:31 | -18.86230 | -43.51206 | 34209 ft | 402 kts | 213° |
| 2026-05-07 13:31 | -18.90678 | -43.54712 | 34211 ft | 401 kts | 212° |
| 2026-05-07 13:32 | -18.95201 | -43.58172 | 34211 ft | 401 kts | 212° |
| 2026-05-07 13:32 | -18.99728 | -43.61630 | 34224 ft | 402 kts | 212° |
| 2026-05-07 13:33 | -19.04257 | -43.65104 | 34218 ft | 402 kts | 212° |
| 2026-05-07 13:33 | -19.08790 | -43.68589 | 34227 ft | 402 kts | 212° |
| 2026-05-07 13:34 | -19.15582 | -43.73819 | 34232 ft | 402 kts | 212° |
| 2026-05-07 13:35 | -19.20106 | -43.77305 | 34228 ft | 402 kts | 212° |
| 2026-05-07 13:35 | -19.24644 | -43.80804 | 34233 ft | 403 kts | 212° |
| 2026-05-07 13:36 | -19.29064 | -43.84215 | 34222 ft | 403 kts | 212° |
| 2026-05-07 13:36 | -19.33592 | -43.87712 | 34227 ft | 403 kts | 212° |
| 2026-05-07 13:37 | -19.38116 | -43.91208 | 34238 ft | 403 kts | 212° |
| 2026-05-07 13:37 | -19.42640 | -43.94706 | 34235 ft | 403 kts | 212° |
| 2026-05-07 13:38 | -19.47167 | -43.98210 | 34241 ft | 402 kts | 212° |
| 2026-05-07 13:38 | -19.51692 | -44.01714 | 34243 ft | 402 kts | 212° |
| 2026-05-07 13:39 | -19.56210 | -44.05214 | 34240 ft | 402 kts | 212° |
| 2026-05-07 13:39 | -19.60749 | -44.08677 | 34241 ft | 401 kts | 212° |
| 2026-05-07 13:40 | -19.65254 | -44.12102 | 34234 ft | 401 kts | 212° |
| 2026-05-07 13:40 | -19.69780 | -44.15553 | 34243 ft | 400 kts | 212° |
| 2026-05-07 13:41 | -19.74294 | -44.19026 | 34236 ft | 400 kts | 212° |
| 2026-05-07 13:41 | -19.78789 | -44.22507 | 34245 ft | 400 kts | 212° |
| 2026-05-07 13:42 | -19.83288 | -44.25993 | 34240 ft | 400 kts | 212° |
| 2026-05-07 13:42 | -19.87789 | -44.29479 | 34240 ft | 400 kts | 212° |
| 2026-05-07 13:43 | -19.92285 | -44.32964 | 34241 ft | 400 kts | 212° |
| 2026-05-07 13:43 | -19.96786 | -44.36455 | 34238 ft | 400 kts | 212° |
| 2026-05-07 13:44 | -20.01285 | -44.39948 | 34239 ft | 400 kts | 212° |
| 2026-05-07 13:44 | -20.05776 | -44.43437 | 34250 ft | 400 kts | 212° |
| 2026-05-07 13:45 | -20.10276 | -44.46934 | 34249 ft | 400 kts | 212° |
| 2026-05-07 13:45 | -20.14748 | -44.50412 | 34254 ft | 401 kts | 212° |
| 2026-05-07 13:46 | -20.19258 | -44.53916 | 34241 ft | 401 kts | 212° |
| 2026-05-07 13:46 | -20.23762 | -44.57418 | 34253 ft | 401 kts | 212° |
| 2026-05-07 13:47 | -20.28272 | -44.60928 | 34249 ft | 401 kts | 213° |
| 2026-05-07 13:47 | -20.32775 | -44.64436 | 34255 ft | 401 kts | 213° |
| 2026-05-07 13:48 | -20.37284 | -44.67952 | 34256 ft | 401 kts | 213° |
| 2026-05-07 13:48 | -20.41756 | -44.71441 | 34261 ft | 401 kts | 213° |
| 2026-05-07 13:49 | -20.46260 | -44.74958 | 34249 ft | 401 kts | 213° |
| 2026-05-07 13:49 | -20.50755 | -44.78469 | 34249 ft | 400 kts | 213° |
| 2026-05-07 13:50 | -20.55247 | -44.81982 | 34262 ft | 399 kts | 213° |
| 2026-05-07 13:50 | -20.59727 | -44.85489 | 34259 ft | 399 kts | 213° |
| 2026-05-07 13:51 | -20.64201 | -44.88995 | 34255 ft | 399 kts | 213° |
| 2026-05-07 13:51 | -20.68648 | -44.92483 | 34263 ft | 399 kts | 213° |
| 2026-05-07 13:52 | -20.73125 | -44.95996 | 34260 ft | 400 kts | 213° |
| 2026-05-07 13:52 | -20.77610 | -44.99515 | 34256 ft | 400 kts | 213° |
| 2026-05-07 13:53 | -20.82094 | -45.03035 | 34255 ft | 400 kts | 213° |
| 2026-05-07 13:53 | -20.86578 | -45.06558 | 34260 ft | 400 kts | 213° |
| 2026-05-07 13:54 | -20.91056 | -45.10077 | 34257 ft | 399 kts | 213° |
| 2026-05-07 13:54 | -20.95535 | -45.13598 | 34257 ft | 399 kts | 213° |
| 2026-05-07 13:55 | -21.00012 | -45.17122 | 34256 ft | 399 kts | 213° |
| 2026-05-07 13:55 | -21.04487 | -45.20647 | 34250 ft | 399 kts | 213° |
| 2026-05-07 13:56 | -21.08932 | -45.24151 | 34258 ft | 399 kts | 213° |
| 2026-05-07 13:56 | -21.13400 | -45.27676 | 34259 ft | 399 kts | 213° |
| 2026-05-07 13:57 | -21.17873 | -45.31208 | 34254 ft | 399 kts | 213° |
| 2026-05-07 13:57 | -21.22342 | -45.34739 | 34248 ft | 399 kts | 214° |
| 2026-05-07 13:58 | -21.26822 | -45.38281 | 34195 ft | 400 kts | 214° |
| 2026-05-07 13:58 | -21.31298 | -45.41824 | 34214 ft | 400 kts | 214° |
| 2026-05-07 13:59 | -21.35770 | -45.45366 | 34214 ft | 400 kts | 214° |
| 2026-05-07 13:59 | -21.39491 | -45.48316 | 34199 ft | 400 kts | 214° |
| 2026-05-07 14:00 | -21.43962 | -45.51863 | 34198 ft | 400 kts | 214° |
| 2026-05-07 14:00 | -21.48435 | -45.55413 | 34200 ft | 400 kts | 214° |
| 2026-05-07 14:01 | -21.52916 | -45.58955 | 34197 ft | 399 kts | 214° |
| 2026-05-07 14:01 | -21.57403 | -45.62473 | 34196 ft | 399 kts | 214° |
| 2026-05-07 14:02 | -21.61896 | -45.66000 | 34193 ft | 399 kts | 214° |
| 2026-05-07 14:02 | -21.66359 | -45.69510 | 34198 ft | 399 kts | 214° |
| 2026-05-07 14:03 | -21.70853 | -45.73047 | 34200 ft | 404 kts | 214° |
| 2026-05-07 14:03 | -21.75456 | -45.76673 | 34196 ft | 415 kts | 214° |
| 2026-05-07 14:04 | -21.80163 | -45.80384 | 33611 ft | 431 kts | 214° |
| 2026-05-07 14:04 | -21.82589 | -45.82299 | 32943 ft | 431 kts | 214° |
| 2026-05-07 14:04 | -21.85006 | -45.84209 | 32347 ft | 428 kts | 214° |
| 2026-05-07 14:04 | -21.87391 | -45.86095 | 31858 ft | 423 kts | 214° |
| 2026-05-07 14:05 | -21.89755 | -45.87965 | 31347 ft | 419 kts | 214° |
| 2026-05-07 14:05 | -21.92099 | -45.89819 | 30844 ft | 415 kts | 214° |
| 2026-05-07 14:05 | -21.94417 | -45.91653 | 30354 ft | 411 kts | 214° |
| 2026-05-07 14:05 | -21.96707 | -45.93465 | 29865 ft | 407 kts | 214° |
| 2026-05-07 14:06 | -21.98979 | -45.95263 | 29371 ft | 403 kts | 214° |
| 2026-05-07 14:06 | -22.01223 | -45.97040 | 28878 ft | 399 kts | 214° |
| 2026-05-07 14:06 | -22.03447 | -45.98802 | 28387 ft | 395 kts | 214° |
| 2026-05-07 14:06 | -22.05653 | -46.00551 | 27864 ft | 393 kts | 214° |
| 2026-05-07 14:07 | -22.07846 | -46.02289 | 27427 ft | 388 kts | 214° |
| 2026-05-07 14:07 | -22.09988 | -46.03988 | 26942 ft | 386 kts | 215° |
| 2026-05-07 14:07 | -22.12146 | -46.05701 | 26475 ft | 383 kts | 215° |
| 2026-05-07 14:07 | -22.14287 | -46.07400 | 26000 ft | 381 kts | 215° |
| 2026-05-07 14:08 | -22.16417 | -46.09091 | 25531 ft | 379 kts | 215° |
| 2026-05-07 14:08 | -22.18536 | -46.10771 | 25065 ft | 377 kts | 215° |
| 2026-05-07 14:08 | -22.20643 | -46.12441 | 24595 ft | 375 kts | 215° |
| 2026-05-07 14:08 | -22.22742 | -46.14105 | 24132 ft | 373 kts | 216° |
| 2026-05-07 14:09 | -22.24831 | -46.15763 | 23674 ft | 372 kts | 216° |
| 2026-05-07 14:09 | -22.26914 | -46.17416 | 23204 ft | 371 kts | 216° |
| 2026-05-07 14:09 | -22.28991 | -46.19066 | 22740 ft | 370 kts | 216° |
| 2026-05-07 14:09 | -22.31087 | -46.20654 | 22285 ft | 368 kts | 208° |
| 2026-05-07 14:10 | -22.33464 | -46.21630 | 21828 ft | 367 kts | 191° |
| 2026-05-07 14:10 | -22.35953 | -46.22070 | 21414 ft | 369 kts | 188° |
| 2026-05-07 14:10 | -22.38516 | -46.22435 | 20958 ft | 375 kts | 187° |
| 2026-05-07 14:10 | -22.41124 | -46.22799 | 20500 ft | 379 kts | 187° |
| 2026-05-07 14:11 | -22.43736 | -46.23177 | 20029 ft | 379 kts | 187° |
| 2026-05-07 14:11 | -22.46344 | -46.23571 | 19558 ft | 378 kts | 187° |
| 2026-05-07 14:11 | -22.48982 | -46.23978 | 19090 ft | 377 kts | 187° |
| 2026-05-07 14:11 | -22.51541 | -46.24379 | 18639 ft | 376 kts | 187° |
| 2026-05-07 14:12 | -22.54130 | -46.24784 | 18184 ft | 376 kts | 187° |
| 2026-05-07 14:12 | -22.56712 | -46.25187 | 17840 ft | 372 kts | 187° |
| 2026-05-07 14:12 | -22.59259 | -46.25583 | 17503 ft | 367 kts | 187° |
| 2026-05-07 14:12 | -22.61767 | -46.25973 | 17191 ft | 363 kts | 187° |
| 2026-05-07 14:13 | -22.64258 | -46.26360 | 16885 ft | 360 kts | 187° |
| 2026-05-07 14:13 | -22.66731 | -46.26744 | 16563 ft | 359 kts | 187° |
| 2026-05-07 14:13 | -22.69197 | -46.27127 | 16254 ft | 357 kts | 187° |
| 2026-05-07 14:13 | -22.71651 | -46.27509 | 15944 ft | 356 kts | 187° |
| 2026-05-07 14:14 | -22.74100 | -46.27890 | 15641 ft | 355 kts | 187° |
| 2026-05-07 14:14 | -22.76543 | -46.28270 | 15327 ft | 355 kts | 187° |
| 2026-05-07 14:14 | -22.78938 | -46.28888 | 14992 ft | 356 kts | 203° |
| 2026-05-07 14:14 | -22.81120 | -46.30141 | 14712 ft | 354 kts | 209° |
| 2026-05-07 14:15 | -22.83250 | -46.31483 | 14399 ft | 355 kts | 210° |
| 2026-05-07 14:15 | -22.85379 | -46.32843 | 14086 ft | 355 kts | 210° |
| 2026-05-07 14:15 | -22.87508 | -46.34198 | 13777 ft | 355 kts | 210° |
| 2026-05-07 14:15 | -22.89646 | -46.35547 | 13460 ft | 356 kts | 210° |
| 2026-05-07 14:16 | -22.91785 | -46.36889 | 13146 ft | 355 kts | 210° |
| 2026-05-07 14:16 | -22.93927 | -46.38225 | 12844 ft | 354 kts | 210° |
| 2026-05-07 14:16 | -22.96058 | -46.39552 | 12558 ft | 353 kts | 210° |
| 2026-05-07 14:16 | -22.98188 | -46.40876 | 12225 ft | 353 kts | 210° |
| 2026-05-07 14:17 | -23.00323 | -46.42202 | 11946 ft | 353 kts | 210° |
| 2026-05-07 14:17 | -23.02462 | -46.43531 | 11622 ft | 354 kts | 210° |
| 2026-05-07 14:17 | -23.04589 | -46.44854 | 11323 ft | 351 kts | 210° |
| 2026-05-07 14:17 | -23.06710 | -46.46172 | 10991 ft | 348 kts | 210° |
| 2026-05-07 14:18 | -23.08789 | -46.47466 | 10691 ft | 344 kts | 210° |
| 2026-05-07 14:18 | -23.10853 | -46.48749 | 10385 ft | 340 kts | 210° |
| 2026-05-07 14:18 | -23.12568 | -46.49817 | 10133 ft | 331 kts | 210° |
| 2026-05-07 14:18 | -23.14295 | -46.50895 | 10092 ft | 315 kts | 210° |
| 2026-05-07 14:19 | -23.16141 | -46.52043 | 10018 ft | 297 kts | 210° |
| 2026-05-07 14:19 | -23.17944 | -46.53167 | 9480 ft | 298 kts | 210° |
| 2026-05-07 14:19 | -23.19721 | -46.54275 | 9144 ft | 291 kts | 210° |
| 2026-05-07 14:19 | -23.21451 | -46.55372 | 8875 ft | 286 kts | 212° |
| 2026-05-07 14:20 | -23.23119 | -46.56545 | 8652 ft | 284 kts | 214° |
| 2026-05-07 14:20 | -23.24781 | -46.57739 | 8339 ft | 292 kts | 213° |
| 2026-05-07 14:20 | -23.26501 | -46.58975 | 8010 ft | 298 kts | 214° |
| 2026-05-07 14:20 | -23.28237 | -46.60216 | 7771 ft | 298 kts | 213° |
| 2026-05-07 14:21 | -23.29946 | -46.61433 | 7542 ft | 296 kts | 214° |
| 2026-05-07 14:21 | -23.31664 | -46.62656 | 7292 ft | 294 kts | 213° |
| 2026-05-07 14:21 | -23.33319 | -46.63829 | 7088 ft | 289 kts | 213° |
| 2026-05-07 14:21 | -23.35002 | -46.65022 | 6869 ft | 289 kts | 213° |
| 2026-05-07 14:22 | -23.36680 | -46.66215 | 6654 ft | 286 kts | 214° |
| 2026-05-07 14:22 | -23.38335 | -46.67399 | 6417 ft | 284 kts | 214° |
| 2026-05-07 14:22 | -23.40022 | -46.68482 | 6254 ft | 278 kts | 200° |
| 2026-05-07 14:22 | -23.41858 | -46.68751 | 6165 ft | 259 kts | 172° |
| 2026-05-07 14:23 | -23.43540 | -46.68169 | 5823 ft | 253 kts | 147° |
| 2026-05-07 14:23 | -23.44863 | -46.67016 | 5652 ft | 237 kts | 127° |
| 2026-05-07 14:23 | -23.45812 | -46.65595 | 5490 ft | 228 kts | 121° |
| 2026-05-07 14:23 | -23.46705 | -46.64160 | 5201 ft | 229 kts | 121° |
| 2026-05-07 14:24 | -23.47244 | -46.62591 | 5031 ft | 219 kts | 90° |
| 2026-05-07 14:24 | -23.47087 | -46.60964 | 4771 ft | 213 kts | 77° |
| 2026-05-07 14:24 | -23.46792 | -46.59415 | 4497 ft | 204 kts | 73° |
| 2026-05-07 14:24 | -23.46414 | -46.57989 | 4214 ft | 193 kts | 71° |
| 2026-05-07 14:25 | -23.46039 | -46.56635 | 4003 ft | 178 kts | 71° |
| 2026-05-07 14:25 | -23.45700 | -46.55388 | 3743 ft | 165 kts | 71° |
| 2026-05-07 14:25 | -23.45378 | -46.54204 | 3540 ft | 163 kts | 71° |
| 2026-05-07 14:25 | -23.45059 | -46.53035 | 3323 ft | 159 kts | 71° |
| 2026-05-07 14:26 | -23.44750 | -46.51900 | 3106 ft | 155 kts | 71° |
| 2026-05-07 14:26 | -23.44439 | -46.50767 | 2915 ft | 157 kts | 70° |
| 2026-05-07 14:26 | -23.44125 | -46.49625 | 2680 ft | 158 kts | 71° |
| 2026-05-07 14:26 | -23.43820 | -46.48489 | 2471 ft | 155 kts | 71° |
| 2026-05-07 14:27 | -23.43547 | -46.47488 | 2465 ft | 125 kts | 75° |
| 2026-05-07 14:27 | -23.43350 | -46.46742 | 2465 ft | 80 kts | 73° |
| 2026-05-07 14:27 | -23.43256 | -46.46437 | 2469 ft | 27 kts | 63° |
| 2026-05-07 14:27 | -23.43160 | -46.46301 | 2466 ft | 16 kts | 43° |
| 2026-05-07 14:28 | -23.43079 | -46.46217 | 2469 ft | 16 kts | 44° |
| 2026-05-07 14:28 | -23.42997 | -46.46143 | 2467 ft | 15 kts | 24° |
| 2026-05-07 14:28 | -23.42895 | -46.46156 | 2467 ft | 16 kts | 343° |
| 2026-05-07 14:28 | -23.42772 | -46.46197 | 2463 ft | 20 kts | 343° |
| 2026-05-07 14:29 | -23.42639 | -46.46244 | 2464 ft | 20 kts | 322° |
| 2026-05-07 14:29 | -23.42644 | -46.46388 | 2460 ft | 20 kts | 253° |
| 2026-05-07 14:29 | -23.42684 | -46.46534 | 2460 ft | 20 kts | 253° |
| 2026-05-07 14:29 | -23.42724 | -46.46674 | 2464 ft | 19 kts | 254° |
| 2026-05-07 14:30 | -23.42760 | -46.46811 | 2462 ft | 18 kts | 254° |
| 2026-05-07 14:30 | -23.42794 | -46.46943 | 2469 ft | 18 kts | 253° |
| 2026-05-07 14:30 | -23.42829 | -46.47070 | 2465 ft | 17 kts | 253° |
| 2026-05-07 14:30 | -23.42863 | -46.47193 | 2464 ft | 17 kts | 254° |
| 2026-05-07 14:31 | -23.42893 | -46.47312 | 2463 ft | 16 kts | 254° |
| 2026-05-07 14:31 | -23.42920 | -46.47402 | 2468 ft | 0 kts | 252° |